createdAt,value
2017-10-24T00:01:08.285Z,101876.50
2017-10-24T00:03:35.885Z,101875.66
2017-10-24T00:06:03.571Z,101869.83
2017-10-24T00:08:31.238Z,101864.13
2017-10-24T00:10:58.918Z,101878.42
2017-10-24T00:13:26.584Z,101876.22
2017-10-24T00:15:54.288Z,101874.97
2017-10-24T00:18:21.937Z,101880.82
2017-10-24T00:20:49.638Z,101881.63
2017-10-24T00:23:17.292Z,101884.70
2017-10-24T00:25:44.897Z,101888.32
2017-10-24T00:28:12.604Z,101893.30
2017-10-24T00:30:40.205Z,101897.77
2017-10-24T00:33:07.921Z,101902.37
2017-10-24T00:35:50.116Z,101902.23
2017-10-24T00:38:17.754Z,101903.88
2017-10-24T00:40:45.409Z,101902.34
2017-10-24T00:43:13.093Z,101906.39
2017-10-24T00:45:40.743Z,101910.69
2017-10-24T00:48:08.376Z,101916.81
2017-10-24T00:50:36.036Z,101924.48
2017-10-24T00:53:03.735Z,101921.70
2017-10-24T00:55:31.352Z,101923.89
2017-10-24T00:57:59.061Z,101925.57
2017-10-24T01:00:26.734Z,101928.36
2017-10-24T01:02:54.419Z,101924.05
2017-10-24T01:05:22.068Z,101930.70
2017-10-24T01:07:49.751Z,101931.26
2017-10-24T01:10:17.399Z,101939.06
2017-10-24T01:12:45.086Z,101936.28
2017-10-24T01:15:12.672Z,101937.53
2017-10-24T01:17:40.376Z,101942.83
2017-10-24T01:20:07.969Z,101949.80
2017-10-24T01:22:35.663Z,101938.23
2017-10-24T01:25:03.345Z,101928.64
2017-10-24T01:27:31.141Z,101929.45
2017-10-24T01:29:58.833Z,101928.47
2017-10-24T01:32:26.458Z,101923.88
2017-10-24T01:34:54.213Z,101926.24
2017-10-24T01:37:21.958Z,101924.71
2017-10-24T01:39:49.666Z,101930.70
2017-10-24T01:42:17.358Z,101940.88
2017-10-24T01:44:45.116Z,101947.98
2017-10-24T01:47:12.773Z,101942.27
2017-10-24T01:49:40.507Z,101936.70
2017-10-24T01:52:08.158Z,101924.58
2017-10-24T01:54:35.903Z,101927.08
2017-10-24T01:57:03.551Z,101925.13
2017-10-24T01:59:31.184Z,101931.96
2017-10-24T02:01:58.843Z,101933.36
2017-10-24T02:04:26.550Z,101936.14
2017-10-24T02:06:54.224Z,101934.75
2017-10-24T02:09:21.963Z,101938.77
2017-10-24T02:11:49.662Z,101944.76
2017-10-24T02:14:17.371Z,101943.78
2017-10-24T02:16:45.043Z,101941.97
2017-10-24T02:19:12.818Z,101934.75
2017-10-24T02:21:40.481Z,101933.77
2017-10-24T02:24:08.206Z,101933.36
2017-10-24T02:26:35.979Z,101935.59
2017-10-24T02:29:03.820Z,101931.80
2017-10-24T02:31:31.839Z,101941.16
2017-10-24T02:33:59.562Z,101935.59
2017-10-24T02:36:27.264Z,101935.98
2017-10-24T02:38:55.509Z,101939.77
2017-10-24T02:41:23.504Z,101938.93
2017-10-24T02:43:51.217Z,101932.23
2017-10-24T02:46:19.037Z,101936.41
2017-10-24T02:48:46.684Z,101941.73
2017-10-24T02:51:14.498Z,101948.70
2017-10-24T02:53:42.262Z,101948.42
2017-10-24T02:56:10.702Z,101951.21
2017-10-24T02:58:38.398Z,101953.44
2017-10-24T03:01:06.135Z,101959.99
2017-10-24T03:03:34.637Z,101965.01
2017-10-24T03:06:02.462Z,101963.06
2017-10-24T03:08:30.247Z,101965.43
2017-10-24T03:10:58.182Z,101967.24
2017-10-24T03:13:25.962Z,101967.24
2017-10-24T03:15:53.718Z,101968.89
2017-10-24T03:18:21.856Z,101973.35
2017-10-24T03:20:49.489Z,101976.56
2017-10-24T03:23:18.076Z,101973.91
2017-10-24T03:25:46.054Z,101981.72
2017-10-24T03:28:13.921Z,101979.77
2017-10-24T03:30:41.884Z,101981.83
2017-10-24T03:33:10.405Z,101983.22
2017-10-24T03:35:38.137Z,101981.83
2017-10-24T03:38:06.297Z,101984.90
2017-10-24T03:40:34.080Z,101981.14
2017-10-24T03:43:01.856Z,101981.39
2017-10-24T03:45:29.620Z,101980.97
2017-10-24T03:47:57.392Z,101986.55
2017-10-24T03:50:25.174Z,101992.12
2017-10-24T03:52:53.307Z,101999.09
2017-10-24T03:55:21.716Z,101995.75
2017-10-24T03:57:49.781Z,101985.44
2017-10-24T04:00:17.532Z,101984.73
2017-10-24T04:02:45.368Z,101980.72
2017-10-24T04:05:13.447Z,101977.09
2017-10-24T04:07:41.174Z,101986.03
2017-10-24T04:10:08.998Z,101983.38
2017-10-24T04:12:37.107Z,101984.23
2017-10-24T04:15:05.793Z,101982.17
2017-10-24T04:17:33.753Z,101980.64
2017-10-24T04:20:01.528Z,101973.67
2017-10-24T04:22:29.593Z,101976.05
2017-10-24T04:24:57.615Z,101973.25
2017-10-24T04:27:26.624Z,101975.76
2017-10-24T04:29:54.426Z,101972.00
2017-10-24T04:32:22.122Z,101973.39
2017-10-24T04:34:50.176Z,101979.80
2017-10-24T04:37:18.266Z,101982.17
2017-10-24T04:39:45.978Z,101983.98
2017-10-24T04:42:13.623Z,101975.76
2017-10-24T04:44:41.693Z,101979.63
2017-10-24T04:47:09.496Z,101979.63
2017-10-24T04:49:37.633Z,101986.22
2017-10-24T04:52:05.438Z,101982.70
2017-10-24T04:54:33.661Z,101990.09
2017-10-24T04:57:01.392Z,101985.07
2017-10-24T04:59:29.287Z,101991.06
2017-10-24T05:01:57.015Z,101997.61
2017-10-24T05:04:25.130Z,101996.64
2017-10-24T05:06:53.304Z,101984.66
2017-10-24T05:09:22.211Z,101990.40
2017-10-24T05:11:49.989Z,101994.43
2017-10-24T05:14:18.765Z,101998.19
2017-10-24T05:16:47.186Z,102000.42
2017-10-24T05:19:15.297Z,102004.47
2017-10-24T05:21:43.110Z,102009.91
2017-10-24T05:24:10.910Z,102006.11
2017-10-24T05:26:38.657Z,102007.38
2017-10-24T05:29:06.536Z,102004.73
2017-10-24T05:31:34.732Z,102000.44
2017-10-24T05:34:02.631Z,102004.20
2017-10-24T05:36:31.217Z,102009.77
2017-10-24T05:38:59.008Z,102008.66
2017-10-24T05:41:26.821Z,102003.34
2017-10-24T05:43:55.803Z,102011.56
2017-10-24T05:46:24.699Z,102009.91
2017-10-24T05:48:52.388Z,102011.00
2017-10-24T05:51:20.966Z,102014.62
2017-10-24T05:53:49.816Z,102014.19
2017-10-24T05:56:17.544Z,102012.23
2017-10-24T05:58:45.293Z,102007.22
2017-10-24T06:01:13.478Z,102002.20
2017-10-24T06:03:41.654Z,101998.15
2017-10-24T06:06:09.428Z,102001.80
2017-10-24T06:08:37.086Z,102005.73
2017-10-24T06:11:05.129Z,102004.16
2017-10-24T06:13:33.163Z,102012.95
2017-10-24T06:16:01.296Z,102008.34
2017-10-24T06:18:29.022Z,102017.13
2017-10-24T06:20:56.834Z,102012.25
2017-10-24T06:23:24.591Z,102003.73
2017-10-24T06:25:52.364Z,102008.19
2017-10-24T06:28:20.943Z,102005.10
2017-10-24T06:30:58.731Z,102009.81
2017-10-24T06:36:18.645Z,102015.22
2017-10-24T06:41:45.378Z,102033.30
2017-10-24T06:44:13.334Z,102039.44
2017-10-24T06:46:41.813Z,102050.56
2017-10-24T06:49:10.438Z,102049.02
2017-10-24T06:51:38.520Z,102056.64
2017-10-24T06:54:06.584Z,102060.97
2017-10-24T06:56:48.713Z,102067.64
2017-10-24T06:59:16.848Z,102063.69
2017-10-24T07:01:44.882Z,102062.58
2017-10-24T07:04:12.534Z,102062.56
2017-10-24T07:06:40.279Z,102073.83
2017-10-24T07:09:08.339Z,102082.62
2017-10-24T07:11:36.029Z,102071.02
2017-10-24T07:14:04.218Z,102073.22
2017-10-24T07:16:31.930Z,102065.78
2017-10-24T07:18:59.727Z,102063.25
2017-10-24T07:21:27.738Z,102060.56
2017-10-24T07:24:00.016Z,102059.98
2017-10-24T07:26:28.115Z,102050.42
2017-10-24T07:28:56.014Z,102033.98
2017-10-24T07:31:23.702Z,102028.91
2017-10-24T07:33:51.695Z,102023.61
2017-10-24T07:36:25.079Z,102017.91
2017-10-24T07:38:53.179Z,102019.36
2017-10-24T07:41:21.596Z,102010.45
2017-10-24T07:43:50.466Z,102012.64
2017-10-24T07:46:18.170Z,102016.84
2017-10-24T07:48:45.867Z,102018.23
2017-10-24T07:51:14.431Z,102010.23
2017-10-24T07:53:42.431Z,102011.70
2017-10-24T07:56:10.886Z,102013.52
2017-10-24T07:58:53.849Z,102022.38
2017-10-24T08:01:30.455Z,102018.38
2017-10-24T08:04:17.366Z,102024.23
2017-10-24T08:06:55.256Z,102024.48
2017-10-24T08:09:33.841Z,102018.73
2017-10-24T08:12:01.928Z,102014.09
2017-10-24T08:14:29.904Z,102016.36
2017-10-24T08:16:57.980Z,102021.44
2017-10-24T08:19:25.814Z,102006.73
2017-10-24T08:21:53.578Z,102001.81
2017-10-24T08:24:21.501Z,101997.58
2017-10-24T08:26:49.275Z,102001.19
2017-10-24T08:29:17.815Z,102001.33
2017-10-24T08:31:45.554Z,101988.68
2017-10-24T08:34:19.437Z,101992.14
2017-10-24T08:37:03.524Z,102004.22
2017-10-24T08:42:12.414Z,102028.58
2017-10-24T08:44:58.853Z,102019.67
2017-10-24T08:50:19.038Z,102018.45
2017-10-24T08:52:56.363Z,102021.11
2017-10-24T08:55:24.284Z,102026.59
2017-10-24T08:57:53.363Z,102017.89
2017-10-24T09:00:21.029Z,102010.70
2017-10-24T09:02:48.763Z,102011.70
2017-10-24T09:08:00.125Z,102005.48
2017-10-24T09:10:53.308Z,102010.23
2017-10-24T09:16:49.045Z,101974.83
2017-10-24T09:22:21.890Z,101993.58
2017-10-24T09:24:49.582Z,101989.15
2017-10-24T09:27:17.206Z,101978.84
2017-10-24T09:29:44.877Z,101973.88
2017-10-24T09:32:12.607Z,101980.59
2017-10-24T09:34:40.291Z,101970.89
2017-10-24T09:37:07.955Z,101974.41
2017-10-24T09:39:35.673Z,101974.30
2017-10-24T09:42:03.377Z,101979.19
2017-10-24T09:44:31.098Z,101984.36
2017-10-24T09:46:58.745Z,101990.75
2017-10-24T09:49:26.386Z,101991.62
2017-10-24T09:51:54.060Z,101983.39
2017-10-24T09:54:21.785Z,101991.70
2017-10-24T09:56:49.436Z,102008.43
2017-10-24T09:59:20.959Z,102019.89
2017-10-24T10:01:49.413Z,102018.21
2017-10-24T10:04:17.144Z,102013.77
2017-10-24T10:07:01.245Z,102009.37
2017-10-24T10:09:28.962Z,102015.23
2017-10-24T10:11:56.642Z,102014.19
2017-10-24T10:14:24.386Z,102008.48
2017-10-24T10:16:52.023Z,102011.67
2017-10-24T10:19:19.758Z,102012.22
2017-10-24T10:21:54.135Z,102011.14
2017-10-24T10:24:31.722Z,102008.88
2017-10-24T10:26:59.374Z,102007.35
2017-10-24T10:29:27.091Z,102003.86
2017-10-24T10:31:54.758Z,101986.66
2017-10-24T10:34:22.466Z,101977.23
2017-10-24T10:36:50.146Z,101980.61
2017-10-24T10:39:17.916Z,101969.55
2017-10-24T10:41:45.604Z,101972.20
2017-10-24T10:44:13.313Z,101965.77
2017-10-24T10:46:40.995Z,101963.20
2017-10-24T10:49:08.672Z,101960.41
2017-10-24T10:51:36.350Z,101961.10
2017-10-24T10:54:04.066Z,101967.91
2017-10-24T10:56:31.777Z,101966.22
2017-10-24T10:58:59.450Z,101965.25
2017-10-24T11:01:27.154Z,101968.89
2017-10-24T11:03:54.845Z,101963.28
2017-10-24T11:06:22.568Z,101959.55
2017-10-24T11:08:50.239Z,101953.83
2017-10-24T11:11:17.937Z,101942.35
2017-10-24T11:13:45.615Z,101935.83
2017-10-24T11:16:13.251Z,101940.06
2017-10-24T11:18:40.922Z,101939.88
2017-10-24T11:21:08.592Z,101936.33
2017-10-24T11:23:36.204Z,101934.48
2017-10-24T11:26:03.928Z,101930.58
2017-10-24T11:28:31.594Z,101923.68
2017-10-24T11:30:59.301Z,101916.49
2017-10-24T11:33:26.962Z,101917.05
2017-10-24T11:35:54.646Z,101924.32
2017-10-24T11:38:22.346Z,101924.22
2017-10-24T11:40:50.065Z,101914.99
2017-10-24T11:43:17.715Z,101916.73
2017-10-24T11:45:45.402Z,101914.41
2017-10-24T11:48:13.066Z,101909.42
2017-10-24T11:50:40.725Z,101911.84
2017-10-24T11:53:08.455Z,101905.45
2017-10-24T11:55:36.050Z,101909.17
2017-10-24T11:58:03.754Z,101901.86
2017-10-24T12:00:31.429Z,101898.55
2017-10-24T12:02:59.151Z,101883.58
2017-10-24T12:05:26.810Z,101873.52
2017-10-24T12:07:54.507Z,101878.73
2017-10-24T12:10:22.175Z,101876.50
2017-10-24T12:12:49.893Z,101870.95
2017-10-24T12:15:17.555Z,101866.52
2017-10-24T12:17:45.428Z,101864.02
2017-10-24T12:20:13.160Z,101869.00
2017-10-24T12:22:40.851Z,101868.38
2017-10-24T12:25:08.534Z,101863.67
2017-10-24T12:27:36.246Z,101859.83
2017-10-24T12:30:03.917Z,101863.66
2017-10-24T12:32:31.649Z,101857.41
2017-10-24T12:34:59.345Z,101848.69
2017-10-24T12:37:27.092Z,101846.30
2017-10-24T12:39:54.728Z,101842.20
2017-10-24T12:42:25.949Z,101843.81
2017-10-24T12:44:56.222Z,101843.45
2017-10-24T12:47:23.951Z,101838.05
2017-10-24T12:49:52.579Z,101838.67
2017-10-24T12:52:20.267Z,101838.05
2017-10-24T12:54:47.991Z,101848.95
2017-10-24T12:57:16.152Z,101848.64
2017-10-24T12:59:44.214Z,101840.77
2017-10-24T13:02:11.903Z,101842.22
2017-10-24T13:04:39.626Z,101830.04
2017-10-24T13:07:07.378Z,101834.53
2017-10-24T13:09:35.210Z,101824.58
2017-10-24T13:12:03.041Z,101824.62
2017-10-24T13:14:30.750Z,101824.25
2017-10-24T13:16:58.418Z,101820.89
2017-10-24T13:19:26.138Z,101820.47
2017-10-24T13:21:53.829Z,101823.45
2017-10-24T13:24:21.557Z,101822.72
2017-10-24T13:26:50.118Z,101818.02
2017-10-24T13:29:17.809Z,101820.17
2017-10-24T13:31:45.508Z,101823.15
2017-10-24T13:34:13.217Z,101816.81
2017-10-24T13:36:40.914Z,101820.64
2017-10-24T13:39:08.643Z,101824.18
2017-10-24T13:41:36.295Z,101822.00
2017-10-24T13:44:04.010Z,101820.70
2017-10-24T13:46:31.667Z,101820.19
2017-10-24T13:48:59.337Z,101818.53
2017-10-24T13:51:27.014Z,101820.53
2017-10-24T13:53:54.662Z,101822.27
2017-10-24T13:56:22.359Z,101815.12
2017-10-24T13:58:50.021Z,101803.94
2017-10-24T14:01:17.738Z,101810.42
2017-10-24T14:03:45.396Z,101817.70
2017-10-24T14:06:18.808Z,101815.79
2017-10-24T14:08:52.443Z,101816.35
2017-10-24T14:11:20.211Z,101819.15
2017-10-24T14:13:47.874Z,101817.33
2017-10-24T14:16:15.513Z,101813.73
2017-10-24T14:18:43.178Z,101814.72
2017-10-24T14:21:10.885Z,101810.61
2017-10-24T14:23:38.596Z,101806.42
2017-10-24T14:26:06.298Z,101801.09
2017-10-24T14:28:33.959Z,101801.34
2017-10-24T14:31:01.712Z,101808.55
2017-10-24T14:33:29.403Z,101806.88
2017-10-24T14:35:57.130Z,101802.27
2017-10-24T14:38:24.835Z,101799.33
2017-10-24T14:40:52.551Z,101800.45
2017-10-24T14:43:20.169Z,101789.13
2017-10-24T14:45:47.865Z,101783.53
2017-10-24T14:48:15.523Z,101771.09
2017-10-24T14:50:43.232Z,101771.09
2017-10-24T14:53:10.891Z,101767.63
2017-10-24T14:55:38.589Z,101754.36
2017-10-24T14:58:06.270Z,101761.91
2017-10-24T15:00:33.925Z,101753.58
2017-10-24T15:03:01.641Z,101759.48
2017-10-24T15:05:29.313Z,101749.90
2017-10-24T15:07:57.033Z,101748.67
2017-10-24T15:10:24.779Z,101751.89
2017-10-24T15:12:52.482Z,101750.69
2017-10-24T15:15:20.149Z,101745.24
2017-10-24T15:17:47.857Z,101754.61
2017-10-24T15:20:15.553Z,101759.40
2017-10-24T15:22:43.264Z,101762.58
2017-10-24T15:25:10.955Z,101754.61
2017-10-24T15:27:38.675Z,101744.83
2017-10-24T15:30:06.280Z,101725.02
2017-10-24T15:32:33.985Z,101715.37
2017-10-24T15:35:01.641Z,101710.61
2017-10-24T15:37:33.611Z,101705.73
2017-10-24T15:40:02.051Z,101699.16
2017-10-24T15:42:42.463Z,101696.78
2017-10-24T15:45:14.809Z,101698.18
2017-10-24T15:47:42.594Z,101712.99
2017-10-24T15:50:10.273Z,101705.02
2017-10-24T15:52:37.963Z,101702.64
2017-10-24T15:55:05.558Z,101693.09
2017-10-24T15:57:33.211Z,101671.00
2017-10-24T16:00:04.844Z,101665.41
2017-10-24T16:02:35.192Z,101671.52
2017-10-24T16:05:02.801Z,101668.86
2017-10-24T16:07:33.779Z,101670.53
2017-10-24T16:10:04.504Z,101680.17
2017-10-24T16:12:32.154Z,101670.80
2017-10-24T16:14:59.818Z,101662.41
2017-10-24T16:17:27.425Z,101680.68
2017-10-24T16:19:55.123Z,101688.51
2017-10-24T16:22:22.778Z,101690.98
2017-10-24T16:24:50.418Z,101692.05
2017-10-24T16:27:22.344Z,101686.31
2017-10-24T16:29:50.978Z,101680.72
2017-10-24T16:32:18.606Z,101674.42
2017-10-24T16:34:46.242Z,101674.00
2017-10-24T16:37:13.847Z,101667.52
2017-10-24T16:39:41.509Z,101662.16
2017-10-24T16:42:09.127Z,101655.02
2017-10-24T16:44:36.887Z,101650.97
2017-10-24T16:47:04.564Z,101655.11
2017-10-24T16:49:32.283Z,101644.77
2017-10-24T16:51:59.956Z,101639.02
2017-10-24T16:54:27.813Z,101642.23
2017-10-24T16:56:55.498Z,101644.05
2017-10-24T16:59:23.147Z,101649.64
2017-10-24T17:01:54.617Z,101657.05
2017-10-24T17:04:22.270Z,101671.04
2017-10-24T17:06:49.887Z,101681.48
2017-10-24T17:09:17.572Z,101682.17
2017-10-24T17:11:45.229Z,101681.16
2017-10-24T17:14:12.899Z,101669.88
2017-10-24T17:16:40.600Z,101677.14
2017-10-24T17:19:08.216Z,101672.62
2017-10-24T17:21:35.950Z,101672.47
2017-10-24T17:24:03.574Z,101666.14
2017-10-24T17:26:31.222Z,101669.62
2017-10-24T17:28:58.816Z,101665.84
2017-10-24T17:31:26.454Z,101662.21
2017-10-24T17:33:54.065Z,101659.83
2017-10-24T17:36:21.778Z,101657.74
2017-10-24T17:38:49.486Z,101646.55
2017-10-24T17:41:17.180Z,101650.04
2017-10-24T17:43:44.874Z,101645.58
2017-10-24T17:46:12.603Z,101651.17
2017-10-24T17:48:40.262Z,101653.97
2017-10-24T17:51:07.987Z,101647.54
2017-10-24T17:53:35.663Z,101646.55
2017-10-24T17:56:04.518Z,101646.08
2017-10-24T17:58:32.120Z,101647.25
2017-10-24T18:00:59.801Z,101645.02
2017-10-24T18:03:27.504Z,101645.42
2017-10-24T18:05:55.192Z,101648.79
2017-10-24T18:08:22.833Z,101647.39
2017-10-24T18:10:50.547Z,101643.19
2017-10-24T18:13:18.263Z,101647.81
2017-10-24T18:15:45.946Z,101640.96
2017-10-24T18:18:13.645Z,101636.34
2017-10-24T18:20:41.317Z,101631.35
2017-10-24T18:23:09.019Z,101631.35
2017-10-24T18:25:36.667Z,101632.16
2017-10-24T18:28:04.359Z,101639.00
2017-10-24T18:30:32.042Z,101643.47
2017-10-24T18:32:59.730Z,101636.71
2017-10-24T18:35:27.387Z,101630.31
2017-10-24T18:37:55.130Z,101626.77
2017-10-24T18:40:22.798Z,101626.20
2017-10-24T18:42:50.530Z,101620.05
2017-10-24T18:45:18.195Z,101619.06
2017-10-24T18:47:45.952Z,101619.63
2017-10-24T18:50:13.625Z,101623.68
2017-10-24T18:52:41.386Z,101624.78
2017-10-24T18:55:09.085Z,101622.91
2017-10-24T18:57:36.711Z,101632.28
2017-10-24T19:00:04.389Z,101624.45
2017-10-24T19:02:32.060Z,101630.47
2017-10-24T19:04:59.720Z,101626.69
2017-10-24T19:07:27.349Z,101638.53
2017-10-24T19:09:55.045Z,101634.19
2017-10-24T19:12:27.232Z,101624.25
2017-10-24T19:14:54.888Z,101615.70
2017-10-24T19:17:22.499Z,101602.70
2017-10-24T19:19:50.197Z,101598.80
2017-10-24T19:22:17.884Z,101604.25
2017-10-24T19:24:45.582Z,101593.39
2017-10-24T19:27:13.199Z,101592.79
2017-10-24T19:29:40.917Z,101593.20
2017-10-24T19:32:08.590Z,101598.23
2017-10-24T19:34:36.290Z,101595.70
2017-10-24T19:37:03.948Z,101589.13
2017-10-24T19:39:31.682Z,101586.72
2017-10-24T19:41:59.351Z,101576.54
2017-10-24T19:44:27.082Z,101566.90
2017-10-24T19:46:54.764Z,101571.93
2017-10-24T19:49:22.461Z,101570.62
2017-10-24T19:51:50.143Z,101573.09
2017-10-24T19:54:17.831Z,101574.06
2017-10-24T19:56:45.507Z,101567.61
2017-10-24T19:59:13.200Z,101569.81
2017-10-24T20:01:40.846Z,101567.55
2017-10-24T20:04:08.581Z,101569.59
2017-10-24T20:06:36.260Z,101569.45
2017-10-24T20:09:03.976Z,101561.97
2017-10-24T20:11:31.676Z,101553.40
2017-10-24T20:13:59.398Z,101553.25
2017-10-24T20:16:26.996Z,101560.25
2017-10-24T20:18:54.662Z,101546.94
2017-10-24T20:21:22.361Z,101551.64
2017-10-24T20:23:51.641Z,101551.22
2017-10-24T20:26:19.371Z,101551.22
2017-10-24T20:28:47.048Z,101548.58
2017-10-24T20:31:14.750Z,101542.56
2017-10-24T20:33:42.431Z,101531.78
2017-10-24T20:36:10.138Z,101535.00
2017-10-24T20:38:39.212Z,101535.41
2017-10-24T20:41:06.861Z,101528.00
2017-10-24T20:43:39.592Z,101528.42
2017-10-24T20:46:07.454Z,101536.25
2017-10-24T20:48:35.069Z,101533.45
2017-10-24T20:51:02.779Z,101536.33
2017-10-24T20:53:30.383Z,101528.20
2017-10-24T20:55:58.079Z,101538.23
2017-10-24T20:58:25.751Z,101534.95
2017-10-24T21:00:53.453Z,101529.14
2017-10-24T21:03:21.110Z,101526.84
2017-10-24T21:05:48.804Z,101530.14
2017-10-24T21:08:16.473Z,101533.71
2017-10-24T21:10:44.164Z,101529.38
2017-10-24T21:13:11.858Z,101518.80
2017-10-24T21:15:39.515Z,101526.71
2017-10-24T21:18:07.178Z,101526.05
2017-10-24T21:20:34.877Z,101522.38
2017-10-24T21:23:02.546Z,101536.81
2017-10-24T21:25:30.211Z,101529.97
2017-10-24T21:27:57.913Z,101515.67
2017-10-24T21:30:25.572Z,101512.62
2017-10-24T21:32:53.275Z,101506.64
2017-10-24T21:35:20.935Z,101500.70
2017-10-24T21:37:48.624Z,101503.85
2017-10-24T21:40:16.306Z,101499.66
2017-10-24T21:42:44.006Z,101504.78
2017-10-24T21:45:11.665Z,101498.54
2017-10-24T21:47:39.359Z,101491.54
2017-10-24T21:50:06.944Z,101500.21
2017-10-24T21:52:34.623Z,101505.81
2017-10-24T21:55:02.306Z,101501.05
2017-10-24T21:57:30.004Z,101500.47
2017-10-24T21:59:57.654Z,101495.21
2017-10-24T22:02:25.364Z,101502.45
2017-10-24T22:04:53.024Z,101487.31
2017-10-24T22:07:20.747Z,101494.16
2017-10-24T22:09:48.397Z,101487.72
2017-10-24T22:12:15.994Z,101482.34
2017-10-24T22:14:43.690Z,101476.25
2017-10-24T22:17:11.354Z,101484.36
2017-10-24T22:19:39.042Z,101475.88
2017-10-24T22:22:06.704Z,101482.54
2017-10-24T22:24:34.412Z,101479.02
2017-10-24T22:27:02.063Z,101479.23
2017-10-24T22:29:29.820Z,101472.88
2017-10-24T22:31:57.479Z,101462.08
2017-10-24T22:34:25.188Z,101466.88
2017-10-24T22:36:52.847Z,101467.45
2017-10-24T22:39:20.623Z,101463.97
2017-10-24T22:41:48.210Z,101458.20
2017-10-24T22:44:15.903Z,101451.45
2017-10-24T22:46:43.548Z,101454.34
2017-10-24T22:49:11.185Z,101448.73
2017-10-24T22:51:38.795Z,101456.33
2017-10-24T22:54:06.425Z,101451.78
2017-10-24T22:56:34.011Z,101453.94
2017-10-24T22:59:01.723Z,101456.97
2017-10-24T23:01:29.402Z,101460.03
2017-10-24T23:03:57.058Z,101461.93
2017-10-24T23:06:24.754Z,101461.77
2017-10-24T23:08:52.417Z,101463.59
2017-10-24T23:11:20.128Z,101461.59
2017-10-24T23:13:47.795Z,101454.11
2017-10-24T23:16:15.484Z,101452.37
2017-10-24T23:18:43.150Z,101449.14
2017-10-24T23:21:10.835Z,101448.16
2017-10-24T23:23:38.497Z,101438.83
2017-10-24T23:26:06.214Z,101426.55
2017-10-24T23:28:33.858Z,101437.84
2017-10-24T23:31:01.559Z,101424.56
2017-10-24T23:33:29.222Z,101428.20
2017-10-24T23:35:56.910Z,101422.24
2017-10-24T23:38:24.591Z,101423.08
2017-10-24T23:40:52.303Z,101428.11
2017-10-24T23:43:19.961Z,101426.30
2017-10-24T23:45:47.647Z,101423.63
2017-10-24T23:48:15.351Z,101428.10
2017-10-24T23:50:43.001Z,101429.16
2017-10-24T23:53:10.686Z,101436.92
2017-10-24T23:55:38.352Z,101440.31
2017-10-24T23:58:06.061Z,101441.72
